sensor_id;sensor_type;location;lat;lon;timestamp;temperature;humidity
27266;DHT22;14766;51.380;13.762;2024-02-23T00:01:27;13.90;70.60
27266;DHT22;14766;51.380;13.762;2024-02-23T00:03:54;13.90;70.60
27266;DHT22;14766;51.380;13.762;2024-02-23T00:06:22;13.90;70.50
27266;DHT22;14766;51.380;13.762;2024-02-23T00:08:55;13.90;70.20
27266;DHT22;14766;51.380;13.762;2024-02-23T00:11:23;13.90;70.00
27266;DHT22;14766;51.380;13.762;2024-02-23T00:13:50;13.90;69.60
27266;DHT22;14766;51.380;13.762;2024-02-23T00:16:17;13.90;69.40
27266;DHT22;14766;51.380;13.762;2024-02-23T00:18:44;13.90;69.40
27266;DHT22;14766;51.380;13.762;2024-02-23T00:21:11;13.90;68.70
27266;DHT22;14766;51.380;13.762;2024-02-23T00:23:38;13.90;68.60
27266;DHT22;14766;51.380;13.762;2024-02-23T00:26:05;14.00;68.70
27266;DHT22;14766;51.380;13.762;2024-02-23T00:28:32;14.00;68.30
27266;DHT22;14766;51.380;13.762;2024-02-23T00:30:59;14.00;66.80
27266;DHT22;14766;51.380;13.762;2024-02-23T00:33:26;14.00;66.10
27266;DHT22;14766;51.380;13.762;2024-02-23T00:35:53;14.10;65.90
27266;DHT22;14766;51.380;13.762;2024-02-23T00:38:20;14.10;65.30
27266;DHT22;14766;51.380;13.762;2024-02-23T00:40:48;14.20;65.10
27266;DHT22;14766;51.380;13.762;2024-02-23T00:43:15;14.30;64.50
27266;DHT22;14766;51.380;13.762;2024-02-23T00:45:42;14.30;63.00
27266;DHT22;14766;51.380;13.762;2024-02-23T00:48:09;14.40;62.90
27266;DHT22;14766;51.380;13.762;2024-02-23T00:50:40;14.40;62.20
27266;DHT22;14766;51.380;13.762;2024-02-23T00:53:08;14.50;61.80
27266;DHT22;14766;51.380;13.762;2024-02-23T00:55:35;14.50;61.60
27266;DHT22;14766;51.380;13.762;2024-02-23T00:58:02;14.60;61.80
27266;DHT22;14766;51.380;13.762;2024-02-23T01:00:30;14.50;60.80
27266;DHT22;14766;51.380;13.762;2024-02-23T01:02:57;14.60;61.10
27266;DHT22;14766;51.380;13.762;2024-02-23T01:05:26;14.60;61.10
27266;DHT22;14766;51.380;13.762;2024-02-23T01:07:53;14.60;60.60
27266;DHT22;14766;51.380;13.762;2024-02-23T01:10:21;14.60;60.20
27266;DHT22;14766;51.380;13.762;2024-02-23T01:12:49;14.60;60.00
27266;DHT22;14766;51.380;13.762;2024-02-23T01:15:16;14.70;60.00
27266;DHT22;14766;51.380;13.762;2024-02-23T01:17:44;14.60;60.20
27266;DHT22;14766;51.380;13.762;2024-02-23T01:20:12;14.70;60.40
27266;DHT22;14766;51.380;13.762;2024-02-23T01:22:40;14.70;60.20
27266;DHT22;14766;51.380;13.762;2024-02-23T01:25:07;14.70;60.30
27266;DHT22;14766;51.380;13.762;2024-02-23T01:27:34;14.70;59.90
27266;DHT22;14766;51.380;13.762;2024-02-23T01:30:02;14.70;59.90
27266;DHT22;14766;51.380;13.762;2024-02-23T01:32:30;14.70;59.50
27266;DHT22;14766;51.380;13.762;2024-02-23T01:34:58;14.60;59.30
27266;DHT22;14766;51.380;13.762;2024-02-23T01:37:25;14.60;59.60
27266;DHT22;14766;51.380;13.762;2024-02-23T01:39:52;14.60;59.30
27266;DHT22;14766;51.380;13.762;2024-02-23T01:42:19;14.60;59.00
27266;DHT22;14766;51.380;13.762;2024-02-23T01:44:46;14.60;58.80
27266;DHT22;14766;51.380;13.762;2024-02-23T01:47:13;14.60;59.00
27266;DHT22;14766;51.380;13.762;2024-02-23T01:49:41;14.60;59.10
27266;DHT22;14766;51.380;13.762;2024-02-23T01:52:09;14.60;58.90
27266;DHT22;14766;51.380;13.762;2024-02-23T01:54:36;14.60;59.10
27266;DHT22;14766;51.380;13.762;2024-02-23T01:57:04;14.60;59.70
27266;DHT22;14766;51.380;13.762;2024-02-23T01:59:51;14.60;59.30
27266;DHT22;14766;51.380;13.762;2024-02-23T02:02:18;14.60;59.10
27266;DHT22;14766;51.380;13.762;2024-02-23T02:04:45;14.60;59.30
27266;DHT22;14766;51.380;13.762;2024-02-23T02:07:12;14.60;58.90
27266;DHT22;14766;51.380;13.762;2024-02-23T02:09:39;14.60;59.00
27266;DHT22;14766;51.380;13.762;2024-02-23T02:12:07;14.60;59.00
27266;DHT22;14766;51.380;13.762;2024-02-23T02:14:35;14.60;59.10
27266;DHT22;14766;51.380;13.762;2024-02-23T02:17:02;14.60;59.10
27266;DHT22;14766;51.380;13.762;2024-02-23T02:19:29;14.60;58.80
27266;DHT22;14766;51.380;13.762;2024-02-23T02:21:57;14.50;58.20
27266;DHT22;14766;51.380;13.762;2024-02-23T02:24:24;14.50;57.90
27266;DHT22;14766;51.380;13.762;2024-02-23T02:26:51;14.50;58.30
27266;DHT22;14766;51.380;13.762;2024-02-23T02:29:18;14.50;57.70
27266;DHT22;14766;51.380;13.762;2024-02-23T02:31:46;14.40;57.10
27266;DHT22;14766;51.380;13.762;2024-02-23T02:34:13;14.40;57.50
27266;DHT22;14766;51.380;13.762;2024-02-23T02:36:41;14.40;57.90
27266;DHT22;14766;51.380;13.762;2024-02-23T02:39:08;14.40;57.70
27266;DHT22;14766;51.380;13.762;2024-02-23T02:41:37;14.40;57.40
27266;DHT22;14766;51.380;13.762;2024-02-23T02:44:04;14.40;56.80
27266;DHT22;14766;51.380;13.762;2024-02-23T02:46:31;14.40;57.00
27266;DHT22;14766;51.380;13.762;2024-02-23T02:48:58;14.30;56.70
27266;DHT22;14766;51.380;13.762;2024-02-23T02:51:26;14.30;57.00
27266;DHT22;14766;51.380;13.762;2024-02-23T02:53:53;14.30;56.80
27266;DHT22;14766;51.380;13.762;2024-02-23T02:56:21;14.30;56.10
27266;DHT22;14766;51.380;13.762;2024-02-23T02:58:48;14.30;56.20
27266;DHT22;14766;51.380;13.762;2024-02-23T03:01:15;14.30;56.50
27266;DHT22;14766;51.380;13.762;2024-02-23T03:03:42;14.30;56.70
27266;DHT22;14766;51.380;13.762;2024-02-23T03:06:09;14.30;56.60
27266;DHT22;14766;51.380;13.762;2024-02-23T03:08:36;14.30;56.60
27266;DHT22;14766;51.380;13.762;2024-02-23T03:11:03;14.20;56.50
27266;DHT22;14766;51.380;13.762;2024-02-23T03:13:30;14.20;56.70
27266;DHT22;14766;51.380;13.762;2024-02-23T03:15:58;14.20;56.90
27266;DHT22;14766;51.380;13.762;2024-02-23T03:18:26;14.20;56.20
27266;DHT22;14766;51.380;13.762;2024-02-23T03:20:56;14.20;55.80
27266;DHT22;14766;51.380;13.762;2024-02-23T03:23:23;14.10;55.00
27266;DHT22;14766;51.380;13.762;2024-02-23T03:25:50;14.10;54.60
27266;DHT22;14766;51.380;13.762;2024-02-23T03:28:17;14.00;54.90
27266;DHT22;14766;51.380;13.762;2024-02-23T03:30:44;14.00;55.00
27266;DHT22;14766;51.380;13.762;2024-02-23T03:33:11;14.00;55.10
27266;DHT22;14766;51.380;13.762;2024-02-23T03:35:40;13.90;55.00
27266;DHT22;14766;51.380;13.762;2024-02-23T03:38:10;13.90;55.20
27266;DHT22;14766;51.380;13.762;2024-02-23T03:40:37;13.90;55.40
27266;DHT22;14766;51.380;13.762;2024-02-23T03:43:04;13.90;55.90
27266;DHT22;14766;51.380;13.762;2024-02-23T03:45:33;13.90;56.00
27266;DHT22;14766;51.380;13.762;2024-02-23T03:48:00;13.90;56.60
27266;DHT22;14766;51.380;13.762;2024-02-23T03:50:28;13.80;57.00
27266;DHT22;14766;51.380;13.762;2024-02-23T03:52:55;13.80;57.10
27266;DHT22;14766;51.380;13.762;2024-02-23T03:55:22;13.80;57.30
27266;DHT22;14766;51.380;13.762;2024-02-23T03:57:49;13.80;57.40
27266;DHT22;14766;51.380;13.762;2024-02-23T04:00:17;13.80;56.70
27266;DHT22;14766;51.380;13.762;2024-02-23T04:02:46;13.80;54.10
27266;DHT22;14766;51.380;13.762;2024-02-23T04:05:13;13.70;53.60
27266;DHT22;14766;51.380;13.762;2024-02-23T04:07:41;13.60;52.50
27266;DHT22;14766;51.380;13.762;2024-02-23T04:10:08;13.50;51.90
27266;DHT22;14766;51.380;13.762;2024-02-23T04:12:35;13.50;51.60
27266;DHT22;14766;51.380;13.762;2024-02-23T04:15:03;13.40;51.20
27266;DHT22;14766;51.380;13.762;2024-02-23T04:17:30;13.40;51.40
27266;DHT22;14766;51.380;13.762;2024-02-23T04:19:57;13.30;51.30
27266;DHT22;14766;51.380;13.762;2024-02-23T04:22:26;13.20;51.30
27266;DHT22;14766;51.380;13.762;2024-02-23T04:24:53;13.20;51.60
27266;DHT22;14766;51.380;13.762;2024-02-23T04:27:20;13.10;51.60
27266;DHT22;14766;51.380;13.762;2024-02-23T04:29:47;13.10;51.60
27266;DHT22;14766;51.380;13.762;2024-02-23T04:32:15;13.10;51.90
27266;DHT22;14766;51.380;13.762;2024-02-23T04:34:42;13.10;51.80
27266;DHT22;14766;51.380;13.762;2024-02-23T04:37:10;13.10;51.70
27266;DHT22;14766;51.380;13.762;2024-02-23T04:39:39;13.00;51.90
27266;DHT22;14766;51.380;13.762;2024-02-23T04:42:08;13.00;52.10
27266;DHT22;14766;51.380;13.762;2024-02-23T04:44:35;13.00;51.70
27266;DHT22;14766;51.380;13.762;2024-02-23T04:47:03;13.00;51.60
27266;DHT22;14766;51.380;13.762;2024-02-23T04:49:30;13.00;51.80
27266;DHT22;14766;51.380;13.762;2024-02-23T04:51:57;13.00;52.20
27266;DHT22;14766;51.380;13.762;2024-02-23T04:54:24;12.90;51.80
27266;DHT22;14766;51.380;13.762;2024-02-23T04:56:51;12.90;51.40
27266;DHT22;14766;51.380;13.762;2024-02-23T04:59:19;12.90;51.90
27266;DHT22;14766;51.380;13.762;2024-02-23T05:01:46;12.90;51.90
27266;DHT22;14766;51.380;13.762;2024-02-23T05:04:14;12.90;51.40
27266;DHT22;14766;51.380;13.762;2024-02-23T05:06:41;12.80;51.30
27266;DHT22;14766;51.380;13.762;2024-02-23T05:09:10;12.80;51.40
27266;DHT22;14766;51.380;13.762;2024-02-23T05:11:38;12.80;51.80
27266;DHT22;14766;51.380;13.762;2024-02-23T05:14:05;12.80;51.30
27266;DHT22;14766;51.380;13.762;2024-02-23T05:16:33;12.70;51.40
27266;DHT22;14766;51.380;13.762;2024-02-23T05:19:00;12.70;51.70
27266;DHT22;14766;51.380;13.762;2024-02-23T05:21:27;12.70;51.60
27266;DHT22;14766;51.380;13.762;2024-02-23T05:23:54;12.70;51.70
27266;DHT22;14766;51.380;13.762;2024-02-23T05:26:21;12.70;51.60
27266;DHT22;14766;51.380;13.762;2024-02-23T05:28:48;12.60;51.20
27266;DHT22;14766;51.380;13.762;2024-02-23T05:31:15;12.60;51.40
27266;DHT22;14766;51.380;13.762;2024-02-23T05:33:44;12.60;51.40
27266;DHT22;14766;51.380;13.762;2024-02-23T05:36:13;12.60;51.80
27266;DHT22;14766;51.380;13.762;2024-02-23T05:38:42;12.50;51.60
27266;DHT22;14766;51.380;13.762;2024-02-23T05:41:13;12.50;51.60
27266;DHT22;14766;51.380;13.762;2024-02-23T05:43:40;12.50;51.90
27266;DHT22;14766;51.380;13.762;2024-02-23T05:46:07;12.50;52.20
27266;DHT22;14766;51.380;13.762;2024-02-23T05:48:34;12.50;52.10
27266;DHT22;14766;51.380;13.762;2024-02-23T05:51:01;12.40;52.00
27266;DHT22;14766;51.380;13.762;2024-02-23T05:53:29;12.40;52.20
27266;DHT22;14766;51.380;13.762;2024-02-23T05:55:59;12.40;52.30
27266;DHT22;14766;51.380;13.762;2024-02-23T05:58:26;12.40;52.30
27266;DHT22;14766;51.380;13.762;2024-02-23T06:00:53;12.40;53.10
27266;DHT22;14766;51.380;13.762;2024-02-23T06:03:21;12.30;52.50
27266;DHT22;14766;51.380;13.762;2024-02-23T06:05:51;12.30;52.80
27266;DHT22;14766;51.380;13.762;2024-02-23T06:08:18;12.30;52.70
27266;DHT22;14766;51.380;13.762;2024-02-23T06:10:45;12.20;52.90
27266;DHT22;14766;51.380;13.762;2024-02-23T06:13:13;12.30;53.10
27266;DHT22;14766;51.380;13.762;2024-02-23T06:15:40;12.30;53.20
27266;DHT22;14766;51.380;13.762;2024-02-23T06:18:07;12.20;53.30
27266;DHT22;14766;51.380;13.762;2024-02-23T06:20:35;12.20;53.20
27266;DHT22;14766;51.380;13.762;2024-02-23T06:23:02;12.20;53.40
27266;DHT22;14766;51.380;13.762;2024-02-23T06:25:29;12.20;53.40
27266;DHT22;14766;51.380;13.762;2024-02-23T06:27:57;12.20;53.60
27266;DHT22;14766;51.380;13.762;2024-02-23T06:30:24;12.20;53.80
27266;DHT22;14766;51.380;13.762;2024-02-23T06:32:51;12.20;54.70
27266;DHT22;14766;51.380;13.762;2024-02-23T06:35:18;12.20;54.30
27266;DHT22;14766;51.380;13.762;2024-02-23T06:37:46;12.20;54.60
27266;DHT22;14766;51.380;13.762;2024-02-23T06:40:13;12.10;54.30
27266;DHT22;14766;51.380;13.762;2024-02-23T06:42:40;12.10;54.50
27266;DHT22;14766;51.380;13.762;2024-02-23T06:45:08;12.10;54.50
27266;DHT22;14766;51.380;13.762;2024-02-23T06:47:36;12.00;54.50
27266;DHT22;14766;51.380;13.762;2024-02-23T06:50:04;12.00;54.50
27266;DHT22;14766;51.380;13.762;2024-02-23T06:52:31;12.00;54.60
27266;DHT22;14766;51.380;13.762;2024-02-23T06:55:00;12.00;54.50
27266;DHT22;14766;51.380;13.762;2024-02-23T06:57:27;11.90;54.40
27266;DHT22;14766;51.380;13.762;2024-02-23T06:59:54;11.90;54.30
27266;DHT22;14766;51.380;13.762;2024-02-23T07:02:21;11.90;54.20
27266;DHT22;14766;51.380;13.762;2024-02-23T07:04:48;11.90;54.10
27266;DHT22;14766;51.380;13.762;2024-02-23T07:07:15;11.90;54.10
27266;DHT22;14766;51.380;13.762;2024-02-23T07:09:42;11.80;54.00
27266;DHT22;14766;51.380;13.762;2024-02-23T07:12:10;11.90;54.00
27266;DHT22;14766;51.380;13.762;2024-02-23T07:14:40;11.90;54.20
27266;DHT22;14766;51.380;13.762;2024-02-23T07:17:08;11.90;54.30
27266;DHT22;14766;51.380;13.762;2024-02-23T07:19:35;11.90;54.10
27266;DHT22;14766;51.380;13.762;2024-02-23T07:22:03;11.90;53.60
27266;DHT22;14766;51.380;13.762;2024-02-23T07:24:31;11.90;53.40
27266;DHT22;14766;51.380;13.762;2024-02-23T07:26:59;11.80;53.50
27266;DHT22;14766;51.380;13.762;2024-02-23T07:29:26;11.80;53.50
27266;DHT22;14766;51.380;13.762;2024-02-23T07:31:54;11.80;53.70
27266;DHT22;14766;51.380;13.762;2024-02-23T07:34:21;11.80;53.80
27266;DHT22;14766;51.380;13.762;2024-02-23T07:36:53;11.80;53.60
27266;DHT22;14766;51.380;13.762;2024-02-23T07:39:21;11.80;53.60
27266;DHT22;14766;51.380;13.762;2024-02-23T07:41:49;11.80;53.80
27266;DHT22;14766;51.380;13.762;2024-02-23T07:44:16;11.80;54.10
27266;DHT22;14766;51.380;13.762;2024-02-23T07:46:43;11.80;54.00
27266;DHT22;14766;51.380;13.762;2024-02-23T07:49:10;11.80;53.60
27266;DHT22;14766;51.380;13.762;2024-02-23T07:51:38;11.90;53.90
27266;DHT22;14766;51.380;13.762;2024-02-23T07:54:06;11.90;54.10
27266;DHT22;14766;51.380;13.762;2024-02-23T07:56:34;11.90;53.90
27266;DHT22;14766;51.380;13.762;2024-02-23T07:59:01;11.90;53.70
27266;DHT22;14766;51.380;13.762;2024-02-23T08:01:31;11.90;53.80
27266;DHT22;14766;51.380;13.762;2024-02-23T08:03:59;11.90;54.20
27266;DHT22;14766;51.380;13.762;2024-02-23T08:06:28;11.90;54.40
27266;DHT22;14766;51.380;13.762;2024-02-23T08:08:55;11.90;54.20
27266;DHT22;14766;51.380;13.762;2024-02-23T08:11:22;11.90;54.40
27266;DHT22;14766;51.380;13.762;2024-02-23T08:13:49;11.90;54.20
27266;DHT22;14766;51.380;13.762;2024-02-23T08:16:17;11.90;54.50
27266;DHT22;14766;51.380;13.762;2024-02-23T08:18:44;12.00;54.40
27266;DHT22;14766;51.380;13.762;2024-02-23T08:21:11;12.00;54.50
27266;DHT22;14766;51.380;13.762;2024-02-23T08:23:38;12.00;54.30
27266;DHT22;14766;51.380;13.762;2024-02-23T08:26:06;12.00;54.50
27266;DHT22;14766;51.380;13.762;2024-02-23T08:28:33;12.10;54.50
27266;DHT22;14766;51.380;13.762;2024-02-23T08:31:00;12.00;54.30
27266;DHT22;14766;51.380;13.762;2024-02-23T08:33:27;12.00;54.40
27266;DHT22;14766;51.380;13.762;2024-02-23T08:35:54;12.10;54.20
27266;DHT22;14766;51.380;13.762;2024-02-23T08:38:22;12.10;54.40
27266;DHT22;14766;51.380;13.762;2024-02-23T08:40:51;12.10;54.50
27266;DHT22;14766;51.380;13.762;2024-02-23T08:43:19;12.10;54.40
27266;DHT22;14766;51.380;13.762;2024-02-23T08:45:47;12.10;54.00
27266;DHT22;14766;51.380;13.762;2024-02-23T08:48:15;12.10;53.60
27266;DHT22;14766;51.380;13.762;2024-02-23T08:50:42;12.10;53.60
27266;DHT22;14766;51.380;13.762;2024-02-23T08:53:10;12.10;53.30
27266;DHT22;14766;51.380;13.762;2024-02-23T08:55:37;12.10;52.90
27266;DHT22;14766;51.380;13.762;2024-02-23T08:58:04;12.00;53.20
27266;DHT22;14766;51.380;13.762;2024-02-23T09:00:33;12.10;53.60
27266;DHT22;14766;51.380;13.762;2024-02-23T09:03:01;12.10;53.80
27266;DHT22;14766;51.380;13.762;2024-02-23T09:05:29;12.10;54.30
27266;DHT22;14766;51.380;13.762;2024-02-23T09:07:56;12.20;53.80
27266;DHT22;14766;51.380;13.762;2024-02-23T09:10:23;12.20;52.90
27266;DHT22;14766;51.380;13.762;2024-02-23T09:12:50;12.20;52.40
27266;DHT22;14766;51.380;13.762;2024-02-23T09:15:17;12.30;51.90
27266;DHT22;14766;51.380;13.762;2024-02-23T09:17:44;12.40;52.70
27266;DHT22;14766;51.380;13.762;2024-02-23T09:20:11;12.60;53.30
27266;DHT22;14766;51.380;13.762;2024-02-23T09:22:39;12.80;53.10
27266;DHT22;14766;51.380;13.762;2024-02-23T09:25:07;13.00;53.20
27266;DHT22;14766;51.380;13.762;2024-02-23T09:27:35;13.20;52.90
27266;DHT22;14766;51.380;13.762;2024-02-23T09:30:06;13.50;52.50
27266;DHT22;14766;51.380;13.762;2024-02-23T09:32:33;13.80;52.00
27266;DHT22;14766;51.380;13.762;2024-02-23T09:35:00;14.10;51.80
27266;DHT22;14766;51.380;13.762;2024-02-23T09:37:27;14.50;51.20
27266;DHT22;14766;51.380;13.762;2024-02-23T09:39:54;14.80;49.70
27266;DHT22;14766;51.380;13.762;2024-02-23T09:42:23;15.10;47.80
27266;DHT22;14766;51.380;13.762;2024-02-23T09:45:00;15.50;46.10
27266;DHT22;14766;51.380;13.762;2024-02-23T09:47:29;15.70;44.60
27266;DHT22;14766;51.380;13.762;2024-02-23T09:49:56;15.80;44.00
27266;DHT22;14766;51.380;13.762;2024-02-23T09:52:24;15.90;43.70
27266;DHT22;14766;51.380;13.762;2024-02-23T09:54:51;15.90;44.50
27266;DHT22;14766;51.380;13.762;2024-02-23T09:57:18;15.90;44.00
27266;DHT22;14766;51.380;13.762;2024-02-23T09:59:47;16.00;44.00
27266;DHT22;14766;51.380;13.762;2024-02-23T10:02:16;16.00;43.70
27266;DHT22;14766;51.380;13.762;2024-02-23T10:04:44;16.00;43.60
27266;DHT22;14766;51.380;13.762;2024-02-23T10:07:14;16.00;44.00
27266;DHT22;14766;51.380;13.762;2024-02-23T10:09:44;16.00;43.40
27266;DHT22;14766;51.380;13.762;2024-02-23T10:12:12;16.10;44.10
27266;DHT22;14766;51.380;13.762;2024-02-23T10:14:41;16.10;41.80
27266;DHT22;14766;51.380;13.762;2024-02-23T10:17:08;16.10;42.00
27266;DHT22;14766;51.380;13.762;2024-02-23T10:19:36;16.20;42.80
27266;DHT22;14766;51.380;13.762;2024-02-23T10:22:03;16.20;41.50
27266;DHT22;14766;51.380;13.762;2024-02-23T10:24:31;16.30;41.30
27266;DHT22;14766;51.380;13.762;2024-02-23T10:27:00;16.40;40.80
27266;DHT22;14766;51.380;13.762;2024-02-23T10:29:29;16.60;39.60
27266;DHT22;14766;51.380;13.762;2024-02-23T10:31:57;16.70;39.30
27266;DHT22;14766;51.380;13.762;2024-02-23T10:34:27;16.90;40.50
27266;DHT22;14766;51.380;13.762;2024-02-23T10:36:56;17.00;40.20
27266;DHT22;14766;51.380;13.762;2024-02-23T10:39:24;17.20;39.60
27266;DHT22;14766;51.380;13.762;2024-02-23T10:42:03;17.20;39.60
27266;DHT22;14766;51.380;13.762;2024-02-23T10:44:30;17.30;39.30
27266;DHT22;14766;51.380;13.762;2024-02-23T10:46:58;17.30;38.70
27266;DHT22;14766;51.380;13.762;2024-02-23T10:49:31;17.30;38.70
27266;DHT22;14766;51.380;13.762;2024-02-23T10:51:58;17.30;38.60
27266;DHT22;14766;51.380;13.762;2024-02-23T10:54:26;17.30;39.80
27266;DHT22;14766;51.380;13.762;2024-02-23T10:56:53;17.40;40.20
27266;DHT22;14766;51.380;13.762;2024-02-23T10:59:23;17.40;38.90
27266;DHT22;14766;51.380;13.762;2024-02-23T11:01:52;17.50;38.00
27266;DHT22;14766;51.380;13.762;2024-02-23T11:04:21;17.50;38.00
27266;DHT22;14766;51.380;13.762;2024-02-23T11:06:53;17.50;38.80
27266;DHT22;14766;51.380;13.762;2024-02-23T11:09:21;17.40;38.80
27266;DHT22;14766;51.380;13.762;2024-02-23T11:11:57;17.40;38.50
27266;DHT22;14766;51.380;13.762;2024-02-23T11:14:38;17.30;38.80
27266;DHT22;14766;51.380;13.762;2024-02-23T11:17:06;17.10;39.60
27266;DHT22;14766;51.380;13.762;2024-02-23T11:19:39;17.00;39.60
27266;DHT22;14766;51.380;13.762;2024-02-23T11:22:10;16.80;39.10
27266;DHT22;14766;51.380;13.762;2024-02-23T11:24:49;16.60;39.60
27266;DHT22;14766;51.380;13.762;2024-02-23T11:27:24;16.50;40.70
27266;DHT22;14766;51.380;13.762;2024-02-23T11:29:59;16.30;40.40
27266;DHT22;14766;51.380;13.762;2024-02-23T11:32:37;16.20;40.70
27266;DHT22;14766;51.380;13.762;2024-02-23T11:35:13;16.10;41.20
27266;DHT22;14766;51.380;13.762;2024-02-23T11:37:59;16.00;41.50
27266;DHT22;14766;51.380;13.762;2024-02-23T11:40:32;16.00;41.50
27266;DHT22;14766;51.380;13.762;2024-02-23T11:43:01;15.90;42.10
27266;DHT22;14766;51.380;13.762;2024-02-23T11:45:29;15.90;42.70
27266;DHT22;14766;51.380;13.762;2024-02-23T11:47:58;15.90;42.20
27266;DHT22;14766;51.380;13.762;2024-02-23T11:50:26;15.80;42.80
27266;DHT22;14766;51.380;13.762;2024-02-23T11:52:54;15.80;42.60
27266;DHT22;14766;51.380;13.762;2024-02-23T11:55:22;15.70;42.00
27266;DHT22;14766;51.380;13.762;2024-02-23T11:57:50;15.60;42.00
27266;DHT22;14766;51.380;13.762;2024-02-23T12:00:31;15.60;42.60
27266;DHT22;14766;51.380;13.762;2024-02-23T12:02:58;15.50;42.50
27266;DHT22;14766;51.380;13.762;2024-02-23T12:05:27;15.40;42.10
27266;DHT22;14766;51.380;13.762;2024-02-23T12:07:56;15.30;42.10
27266;DHT22;14766;51.380;13.762;2024-02-23T12:10:25;15.20;42.60
27266;DHT22;14766;51.380;13.762;2024-02-23T12:12:54;15.10;42.20
27266;DHT22;14766;51.380;13.762;2024-02-23T12:15:23;15.10;42.50
27266;DHT22;14766;51.380;13.762;2024-02-23T12:17:50;15.00;42.20
27266;DHT22;14766;51.380;13.762;2024-02-23T12:20:18;14.90;42.50
27266;DHT22;14766;51.380;13.762;2024-02-23T12:22:46;14.80;42.90
27266;DHT22;14766;51.380;13.762;2024-02-23T12:25:14;14.80;42.70
27266;DHT22;14766;51.380;13.762;2024-02-23T12:27:42;14.80;42.20
27266;DHT22;14766;51.380;13.762;2024-02-23T12:30:16;14.70;42.10
27266;DHT22;14766;51.380;13.762;2024-02-23T12:32:44;14.70;41.50
27266;DHT22;14766;51.380;13.762;2024-02-23T12:35:12;14.70;42.20
27266;DHT22;14766;51.380;13.762;2024-02-23T12:37:40;14.70;41.90
27266;DHT22;14766;51.380;13.762;2024-02-23T12:40:11;14.80;42.00
27266;DHT22;14766;51.380;13.762;2024-02-23T12:42:39;14.70;41.40
27266;DHT22;14766;51.380;13.762;2024-02-23T12:45:07;14.70;41.40
27266;DHT22;14766;51.380;13.762;2024-02-23T12:47:34;14.70;41.10
27266;DHT22;14766;51.380;13.762;2024-02-23T12:50:02;14.70;42.00
27266;DHT22;14766;51.380;13.762;2024-02-23T12:52:29;14.70;41.50
27266;DHT22;14766;51.380;13.762;2024-02-23T12:54:56;14.70;41.90
27266;DHT22;14766;51.380;13.762;2024-02-23T12:57:23;14.70;41.60
27266;DHT22;14766;51.380;13.762;2024-02-23T12:59:51;14.70;41.50
27266;DHT22;14766;51.380;13.762;2024-02-23T13:02:18;14.60;41.70
27266;DHT22;14766;51.380;13.762;2024-02-23T13:04:46;14.60;41.90
27266;DHT22;14766;51.380;13.762;2024-02-23T13:07:16;14.70;42.70
27266;DHT22;14766;51.380;13.762;2024-02-23T13:09:46;14.70;42.40
27266;DHT22;14766;51.380;13.762;2024-02-23T13:12:13;14.70;41.10
27266;DHT22;14766;51.380;13.762;2024-02-23T13:14:41;14.60;40.70
27266;DHT22;14766;51.380;13.762;2024-02-23T13:17:08;14.60;40.40
27266;DHT22;14766;51.380;13.762;2024-02-23T13:19:35;14.50;40.70
27266;DHT22;14766;51.380;13.762;2024-02-23T13:22:03;14.50;40.20
27266;DHT22;14766;51.380;13.762;2024-02-23T13:24:30;14.40;40.70
27266;DHT22;14766;51.380;13.762;2024-02-23T13:26:57;14.40;41.50
27266;DHT22;14766;51.380;13.762;2024-02-23T13:29:24;14.30;41.40
27266;DHT22;14766;51.380;13.762;2024-02-23T13:31:53;14.30;41.40
27266;DHT22;14766;51.380;13.762;2024-02-23T13:34:20;14.30;41.30
27266;DHT22;14766;51.380;13.762;2024-02-23T13:36:48;14.30;41.00
27266;DHT22;14766;51.380;13.762;2024-02-23T13:39:16;14.20;41.60
27266;DHT22;14766;51.380;13.762;2024-02-23T13:41:43;14.20;41.60
27266;DHT22;14766;51.380;13.762;2024-02-23T13:44:11;14.20;41.90
27266;DHT22;14766;51.380;13.762;2024-02-23T13:46:38;14.20;42.10
27266;DHT22;14766;51.380;13.762;2024-02-23T13:49:07;14.20;42.00
27266;DHT22;14766;51.380;13.762;2024-02-23T13:51:36;14.20;42.20
27266;DHT22;14766;51.380;13.762;2024-02-23T13:54:05;14.20;42.50
27266;DHT22;14766;51.380;13.762;2024-02-23T13:56:33;14.20;42.80
27266;DHT22;14766;51.380;13.762;2024-02-23T13:59:00;14.30;42.60
27266;DHT22;14766;51.380;13.762;2024-02-23T14:01:28;14.20;41.90
27266;DHT22;14766;51.380;13.762;2024-02-23T14:03:55;14.20;42.40
27266;DHT22;14766;51.380;13.762;2024-02-23T14:06:22;14.20;42.20
27266;DHT22;14766;51.380;13.762;2024-02-23T14:08:49;14.20;42.40
27266;DHT22;14766;51.380;13.762;2024-02-23T14:11:17;14.20;42.40
27266;DHT22;14766;51.380;13.762;2024-02-23T14:13:46;14.10;42.80
27266;DHT22;14766;51.380;13.762;2024-02-23T14:16:17;14.10;43.00
27266;DHT22;14766;51.380;13.762;2024-02-23T14:18:44;14.10;42.80
27266;DHT22;14766;51.380;13.762;2024-02-23T14:21:11;14.10;43.20
27266;DHT22;14766;51.380;13.762;2024-02-23T14:23:40;14.00;42.80
27266;DHT22;14766;51.380;13.762;2024-02-23T14:26:09;14.00;43.20
27266;DHT22;14766;51.380;13.762;2024-02-23T14:28:36;14.00;43.50
27266;DHT22;14766;51.380;13.762;2024-02-23T14:31:03;13.90;43.30
27266;DHT22;14766;51.380;13.762;2024-02-23T14:33:32;13.90;43.40
27266;DHT22;14766;51.380;13.762;2024-02-23T14:36:00;13.90;43.50
27266;DHT22;14766;51.380;13.762;2024-02-23T14:38:27;13.90;44.00
27266;DHT22;14766;51.380;13.762;2024-02-23T14:40:54;13.90;44.40
27266;DHT22;14766;51.380;13.762;2024-02-23T14:43:21;13.90;44.40
27266;DHT22;14766;51.380;13.762;2024-02-23T14:45:49;13.90;44.50
27266;DHT22;14766;51.380;13.762;2024-02-23T14:48:18;13.90;44.60
27266;DHT22;14766;51.380;13.762;2024-02-23T14:50:45;13.90;44.70
27266;DHT22;14766;51.380;13.762;2024-02-23T14:53:13;13.90;44.90
27266;DHT22;14766;51.380;13.762;2024-02-23T14:55:41;14.00;45.00
27266;DHT22;14766;51.380;13.762;2024-02-23T14:58:08;14.00;44.70
27266;DHT22;14766;51.380;13.762;2024-02-23T15:00:36;14.00;44.80
27266;DHT22;14766;51.380;13.762;2024-02-23T15:03:04;13.90;45.10
27266;DHT22;14766;51.380;13.762;2024-02-23T15:05:31;14.00;45.30
27266;DHT22;14766;51.380;13.762;2024-02-23T15:07:58;14.00;45.00
27266;DHT22;14766;51.380;13.762;2024-02-23T15:10:25;14.00;44.60
27266;DHT22;14766;51.380;13.762;2024-02-23T15:12:54;14.00;44.80
27266;DHT22;14766;51.380;13.762;2024-02-23T15:15:22;14.00;45.00
27266;DHT22;14766;51.380;13.762;2024-02-23T15:17:49;14.00;45.00
27266;DHT22;14766;51.380;13.762;2024-02-23T15:20:17;14.00;45.20